createdAt,value
2019-03-28T00:01:14.659Z,25.33
2019-03-28T00:03:43.039Z,24.90
2019-03-28T00:06:11.424Z,24.73
2019-03-28T00:08:39.819Z,23.83
2019-03-28T00:11:08.467Z,30.70
2019-03-28T00:13:36.860Z,22.50
2019-03-28T00:16:05.324Z,21.77
2019-03-28T00:18:34.025Z,29.53
2019-03-28T00:21:02.409Z,22.80
2019-03-28T00:23:32.443Z,21.97
2019-03-28T00:26:00.829Z,21.97
2019-03-28T00:28:29.275Z,25.57
2019-03-28T00:30:57.664Z,26.43
2019-03-28T00:33:26.064Z,22.20
2019-03-28T00:35:54.471Z,28.83
2019-03-28T00:38:22.847Z,24.73
2019-03-28T00:40:51.231Z,30.53
2019-03-28T00:43:19.618Z,22.80
2019-03-28T00:45:48.001Z,25.97
2019-03-28T00:48:16.371Z,26.80
2019-03-28T00:50:44.769Z,22.53
2019-03-28T00:53:13.149Z,22.67
2019-03-28T00:55:41.532Z,23.17
2019-03-28T00:58:09.936Z,21.67
2019-03-28T01:00:38.455Z,25.00
2019-03-28T01:03:06.848Z,23.53
2019-03-28T01:05:35.226Z,19.63
2019-03-28T01:08:03.617Z,21.23
2019-03-28T01:10:31.991Z,20.67
2019-03-28T01:13:00.384Z,21.80
2019-03-28T01:15:28.773Z,17.27
2019-03-28T01:17:57.164Z,19.83
2019-03-28T01:20:26.237Z,24.43
2019-03-28T01:22:54.821Z,22.43
2019-03-28T01:25:23.291Z,21.97
2019-03-28T01:27:51.671Z,23.33
2019-03-28T01:30:20.052Z,21.03
2019-03-28T01:32:48.449Z,22.63
2019-03-28T01:35:16.828Z,20.63
2019-03-28T01:37:45.448Z,22.87
2019-03-28T01:40:13.841Z,24.07
2019-03-28T01:42:42.223Z,20.93
2019-03-28T01:45:10.595Z,26.00
2019-03-28T01:47:38.984Z,21.23
2019-03-28T01:50:07.611Z,21.53
2019-03-28T01:52:36.000Z,18.80
2019-03-28T01:55:06.428Z,22.33
2019-03-28T01:57:34.821Z,23.07
2019-03-28T02:00:03.279Z,19.60
2019-03-28T02:02:31.660Z,21.23
2019-03-28T02:05:00.062Z,22.63
2019-03-28T02:07:28.440Z,19.27
2019-03-28T02:09:56.827Z,21.00
2019-03-28T02:12:25.215Z,20.73
2019-03-28T02:14:53.659Z,21.87
2019-03-28T02:17:22.106Z,23.63
2019-03-28T02:19:50.503Z,25.07
2019-03-28T02:22:19.328Z,22.13
2019-03-28T02:24:47.847Z,20.10
2019-03-28T02:27:23.979Z,23.77
2019-03-28T02:29:46.349Z,22.87
2019-03-28T02:32:14.736Z,27.17
2019-03-28T02:34:43.114Z,25.27
2019-03-28T02:37:11.492Z,24.33
2019-03-28T02:39:39.889Z,23.40
2019-03-28T02:42:08.273Z,21.00
2019-03-28T02:44:37.507Z,23.27
2019-03-28T02:47:06.137Z,23.67
2019-03-28T02:49:34.520Z,28.40
2019-03-28T02:52:02.915Z,24.00
2019-03-28T02:54:31.672Z,22.07
2019-03-28T02:57:00.352Z,23.20
2019-03-28T02:59:28.810Z,20.63
2019-03-28T03:01:57.204Z,23.47
2019-03-28T03:04:25.598Z,22.63
2019-03-28T03:06:53.981Z,25.40
2019-03-28T03:09:22.361Z,22.70
2019-03-28T03:11:50.753Z,24.83
2019-03-28T03:14:19.257Z,20.73
2019-03-28T03:16:48.791Z,24.00
2019-03-28T03:19:17.573Z,25.57
2019-03-28T03:21:45.965Z,24.30
2019-03-28T03:24:14.340Z,22.47
2019-03-28T03:26:42.731Z,26.50
2019-03-28T03:29:11.129Z,27.93
2019-03-28T03:31:39.508Z,27.07
2019-03-28T03:34:07.893Z,23.20
2019-03-28T03:36:36.288Z,21.40
2019-03-28T03:39:06.888Z,22.17
2019-03-28T03:41:35.269Z,26.00
2019-03-28T03:44:03.668Z,22.30
2019-03-28T03:46:32.055Z,24.70
2019-03-28T03:49:00.474Z,22.53
2019-03-28T03:51:28.893Z,21.03
2019-03-28T03:53:57.282Z,30.87
2019-03-28T03:56:25.655Z,27.63
2019-03-28T03:58:54.894Z,24.87
2019-03-28T04:01:23.272Z,24.27
2019-03-28T04:03:51.654Z,24.17
2019-03-28T04:06:20.133Z,24.83
2019-03-28T04:08:48.518Z,27.77
2019-03-28T04:11:16.896Z,22.20
2019-03-28T04:13:45.528Z,27.93
2019-03-28T04:16:13.904Z,26.73
2019-03-28T04:18:42.296Z,27.47
2019-03-28T04:21:10.684Z,26.83
2019-03-28T04:23:39.074Z,25.53
2019-03-28T04:26:07.463Z,27.33
2019-03-28T04:28:36.021Z,22.10
2019-03-28T04:31:04.741Z,28.10
2019-03-28T04:33:33.147Z,27.37
2019-03-28T04:36:01.512Z,24.30
2019-03-28T04:38:29.892Z,24.47
2019-03-28T04:40:58.285Z,27.93
2019-03-28T04:43:26.671Z,28.47
2019-03-28T04:45:55.048Z,28.00
2019-03-28T04:48:23.451Z,29.23
2019-03-28T04:50:51.833Z,32.00
2019-03-28T04:53:20.208Z,24.20
2019-03-28T04:55:48.596Z,21.80
2019-03-28T04:58:16.974Z,21.77
2019-03-28T05:00:45.372Z,24.33
2019-03-28T05:03:13.759Z,26.83
2019-03-28T05:05:42.143Z,29.47
2019-03-28T05:08:10.527Z,25.47
2019-03-28T05:10:38.923Z,28.53
2019-03-28T05:13:07.319Z,30.43
2019-03-28T05:15:35.692Z,29.77
2019-03-28T05:18:04.077Z,23.60
2019-03-28T05:20:32.466Z,27.37
2019-03-28T05:23:00.844Z,26.30
2019-03-28T05:25:29.237Z,24.30
2019-03-28T05:28:16.963Z,25.97
2019-03-28T05:30:45.355Z,31.63
2019-03-28T05:33:13.744Z,27.67
2019-03-28T05:35:42.136Z,28.20
2019-03-28T05:38:10.516Z,29.77
2019-03-28T05:40:38.896Z,29.30
2019-03-28T05:43:07.292Z,35.60
2019-03-28T05:45:35.672Z,26.40
2019-03-28T05:48:04.078Z,23.80
2019-03-28T05:50:32.468Z,25.87
2019-03-28T05:53:00.856Z,34.17
2019-03-28T05:55:29.232Z,32.30
2019-03-28T05:57:57.611Z,31.40
2019-03-28T06:00:26.009Z,31.93
2019-03-28T06:02:54.387Z,30.77
2019-03-28T06:05:22.779Z,27.47
2019-03-28T06:07:51.166Z,33.37
2019-03-28T06:10:19.556Z,27.33
2019-03-28T06:12:47.951Z,32.33
2019-03-28T06:15:17.804Z,31.77
2019-03-28T06:17:46.191Z,35.83
2019-03-28T06:20:14.727Z,35.67
2019-03-28T06:22:43.116Z,36.63
2019-03-28T06:25:11.665Z,46.00
2019-03-28T06:27:40.048Z,35.90
2019-03-28T06:30:09.571Z,32.93
2019-03-28T06:32:43.213Z,36.33
2019-03-28T06:35:08.220Z,39.03
2019-03-28T06:37:36.614Z,35.43
2019-03-28T06:40:05.947Z,34.97
2019-03-28T06:42:34.332Z,29.80
2019-03-28T06:45:03.937Z,34.27
2019-03-28T06:47:32.483Z,37.03
2019-03-28T06:50:00.864Z,31.30
2019-03-28T06:52:29.245Z,32.90
2019-03-28T06:54:57.647Z,28.53
2019-03-28T06:57:26.026Z,33.13
2019-03-28T06:59:54.399Z,38.33
2019-03-28T07:02:22.829Z,39.83
2019-03-28T07:04:51.255Z,48.97
2019-03-28T07:07:19.636Z,46.93
2019-03-28T07:09:48.031Z,36.23
2019-03-28T07:12:16.448Z,46.30
2019-03-28T07:14:44.827Z,35.63
2019-03-28T07:17:13.209Z,58.83
2019-03-28T07:19:41.604Z,30.63
2019-03-28T07:22:10.351Z,32.80
2019-03-28T07:24:38.960Z,32.97
2019-03-28T07:27:07.335Z,34.13
2019-03-28T07:29:35.717Z,34.33
2019-03-28T07:32:04.157Z,34.07
2019-03-28T07:34:32.563Z,44.80
2019-03-28T07:37:00.968Z,34.47
2019-03-28T07:39:29.357Z,36.77
2019-03-28T07:41:57.735Z,38.13
2019-03-28T07:44:26.140Z,41.40
2019-03-28T07:46:54.544Z,49.27
2019-03-28T07:49:22.931Z,39.13
2019-03-28T07:51:51.332Z,35.10
2019-03-28T07:54:19.731Z,37.93
2019-03-28T07:56:48.149Z,32.53
2019-03-28T07:59:16.593Z,35.57
2019-03-28T08:01:44.984Z,33.23
2019-03-28T08:04:13.369Z,34.87
2019-03-28T08:06:49.820Z,41.17
2019-03-28T08:09:11.880Z,29.83
2019-03-28T08:11:40.268Z,34.03
2019-03-28T08:14:08.663Z,35.43
2019-03-28T08:16:37.116Z,36.80
2019-03-28T08:19:07.972Z,36.93
2019-03-28T08:21:35.642Z,31.63
2019-03-28T08:24:04.300Z,37.20
2019-03-28T08:26:32.691Z,39.97
2019-03-28T08:29:01.077Z,38.23
2019-03-28T08:31:29.459Z,33.10
2019-03-28T08:33:58.008Z,40.00
2019-03-28T08:36:28.149Z,31.53
2019-03-28T08:38:57.281Z,41.27
2019-03-28T08:41:25.675Z,38.33
2019-03-28T08:43:54.060Z,41.20
2019-03-28T08:46:22.453Z,35.93
2019-03-28T08:48:50.855Z,32.07
2019-03-28T08:51:19.239Z,40.43
2019-03-28T08:53:47.640Z,32.10
2019-03-28T08:56:16.025Z,32.40
2019-03-28T08:58:44.420Z,30.63
2019-03-28T09:01:12.809Z,36.20
2019-03-28T09:03:41.187Z,40.10
2019-03-28T09:06:09.815Z,35.83
2019-03-28T09:08:38.199Z,32.37
2019-03-28T09:11:06.620Z,28.97
2019-03-28T09:13:35.000Z,34.43
2019-03-28T09:16:03.397Z,33.87
2019-03-28T09:18:31.780Z,32.80
2019-03-28T09:21:00.169Z,28.20
2019-03-28T09:23:28.564Z,35.60
2019-03-28T09:25:56.956Z,30.17
2019-03-28T09:28:25.341Z,33.63
2019-03-28T09:30:53.748Z,29.60
2019-03-28T09:33:22.131Z,32.83
2019-03-28T09:35:50.553Z,26.17
2019-03-28T09:38:19.087Z,32.10
2019-03-28T09:40:47.465Z,32.70
2019-03-28T09:43:15.860Z,34.77
2019-03-28T09:45:44.258Z,36.37
2019-03-28T09:48:12.648Z,27.27
2019-03-28T09:50:41.031Z,28.37
2019-03-28T09:53:09.433Z,27.30
2019-03-28T09:55:37.812Z,30.03
2019-03-28T09:58:06.196Z,30.83
2019-03-28T10:00:34.892Z,24.53
2019-03-28T10:03:03.348Z,28.57
2019-03-28T10:05:31.748Z,21.87
2019-03-28T10:08:00.136Z,22.90
2019-03-28T10:10:28.512Z,22.87
2019-03-28T10:12:56.913Z,24.10
2019-03-28T10:15:25.304Z,20.43
2019-03-28T10:17:54.807Z,20.33
2019-03-28T10:20:23.639Z,20.80
2019-03-28T10:22:52.012Z,20.17
2019-03-28T10:25:20.426Z,22.17
2019-03-28T10:27:48.792Z,23.50
2019-03-28T10:30:18.979Z,26.77
2019-03-28T10:32:47.381Z,25.23
2019-03-28T10:35:24.652Z,23.80
2019-03-28T10:37:53.068Z,22.60
2019-03-28T10:40:21.456Z,26.43
2019-03-28T10:42:49.844Z,21.00
2019-03-28T10:45:18.248Z,26.17
2019-03-28T10:47:46.632Z,24.30
2019-03-28T10:50:15.083Z,28.07
2019-03-28T10:52:43.500Z,23.87
2019-03-28T10:55:11.959Z,26.17
2019-03-28T10:57:40.409Z,22.70
2019-03-28T11:00:09.144Z,23.67
2019-03-28T11:02:38.701Z,22.03
2019-03-28T11:05:07.450Z,20.27
2019-03-28T11:07:35.847Z,22.47
2019-03-28T11:10:06.283Z,23.73
2019-03-28T11:12:34.662Z,26.70
2019-03-28T11:15:03.211Z,19.20
2019-03-28T11:17:31.591Z,20.90
2019-03-28T11:19:59.980Z,26.60
2019-03-28T11:22:28.436Z,18.63
2019-03-28T11:24:56.824Z,16.07
2019-03-28T11:27:25.212Z,14.13
2019-03-28T11:29:53.607Z,16.63
2019-03-28T11:32:21.995Z,13.97
2019-03-28T11:34:50.455Z,10.50
2019-03-28T11:37:26.010Z,11.07
2019-03-28T11:39:48.959Z,9.33
2019-03-28T11:42:17.425Z,10.63
2019-03-28T11:44:45.879Z,16.27
2019-03-28T11:47:14.269Z,14.77
2019-03-28T11:49:42.649Z,15.63
2019-03-28T11:52:11.032Z,18.30
2019-03-28T11:54:39.425Z,12.33
2019-03-28T11:57:07.812Z,11.20
2019-03-28T11:59:36.192Z,14.53
2019-03-28T12:02:19.236Z,13.47
2019-03-28T12:04:34.703Z,11.63
2019-03-28T12:07:03.083Z,12.70
2019-03-28T12:09:31.479Z,13.40
2019-03-28T12:11:59.875Z,15.70
2019-03-28T12:14:28.256Z,12.00
2019-03-28T12:16:56.639Z,10.50
2019-03-28T12:19:25.034Z,9.80
2019-03-28T12:21:53.420Z,14.03
2019-03-28T12:24:21.812Z,12.07
2019-03-28T12:26:50.200Z,13.57
2019-03-28T12:29:18.575Z,12.63
2019-03-28T12:31:47.047Z,13.87
2019-03-28T12:34:15.429Z,11.50
2019-03-28T12:36:44.624Z,15.03
2019-03-28T12:39:15.638Z,12.00
2019-03-28T12:41:44.319Z,11.73
2019-03-28T12:44:12.700Z,17.73
2019-03-28T12:46:41.093Z,14.97
2019-03-28T12:49:09.473Z,15.27
2019-03-28T12:51:37.847Z,11.00
2019-03-28T12:54:06.232Z,15.03
2019-03-28T12:56:34.853Z,13.43
2019-03-28T12:59:03.232Z,19.83
2019-03-28T13:01:31.876Z,13.43
2019-03-28T13:04:00.259Z,13.50
2019-03-28T13:06:28.636Z,13.87
2019-03-28T13:08:57.045Z,18.23
2019-03-28T13:11:25.420Z,14.43
2019-03-28T13:13:53.799Z,17.50
2019-03-28T13:16:22.202Z,15.87
2019-03-28T13:18:50.583Z,15.00
2019-03-28T13:21:18.965Z,15.57
2019-03-28T13:23:47.360Z,16.67
2019-03-28T13:26:15.773Z,15.87
2019-03-28T13:28:44.142Z,15.80
2019-03-28T13:31:12.521Z,21.20
2019-03-28T13:33:40.900Z,20.20
2019-03-28T13:36:09.292Z,16.43
2019-03-28T13:38:37.673Z,16.10
2019-03-28T13:41:06.131Z,20.07
2019-03-28T13:43:34.536Z,17.60
2019-03-28T13:46:02.922Z,19.37
2019-03-28T13:48:31.312Z,21.33
2019-03-28T13:50:59.704Z,17.90
2019-03-28T13:53:38.906Z,15.57
2019-03-28T13:55:58.440Z,17.33
2019-03-28T13:58:26.841Z,17.93
2019-03-28T14:00:56.322Z,18.83
2019-03-28T14:03:24.995Z,19.43
2019-03-28T14:05:53.388Z,20.90
2019-03-28T14:08:21.773Z,20.00
2019-03-28T14:10:50.164Z,17.77
2019-03-28T14:13:18.563Z,18.17
2019-03-28T14:15:46.955Z,15.90
2019-03-28T14:18:15.357Z,14.73
2019-03-28T14:20:43.781Z,18.63
2019-03-28T14:23:12.142Z,18.43
2019-03-28T14:25:40.532Z,20.63
2019-03-28T14:28:08.920Z,16.90
2019-03-28T14:30:39.524Z,15.97
2019-03-28T14:33:11.666Z,20.37
2019-03-28T14:35:37.768Z,19.03
2019-03-28T14:38:06.171Z,18.43
2019-03-28T14:40:34.559Z,16.80
2019-03-28T14:43:02.944Z,22.10
2019-03-28T14:45:31.336Z,19.30
2019-03-28T14:47:59.717Z,19.87
2019-03-28T14:50:36.171Z,19.00
2019-03-28T14:53:04.988Z,21.53
2019-03-28T14:55:34.810Z,22.07
2019-03-28T14:58:04.935Z,21.83
2019-03-28T15:00:53.267Z,21.07
2019-03-28T15:03:26.728Z,19.77
2019-03-28T15:05:51.767Z,24.30
2019-03-28T15:08:20.166Z,22.43
2019-03-28T15:10:48.548Z,24.23
2019-03-28T15:13:16.940Z,26.60
2019-03-28T15:15:45.331Z,24.57
2019-03-28T15:18:13.712Z,18.57
2019-03-28T15:20:42.107Z,19.90
2019-03-28T15:23:10.509Z,22.40
2019-03-28T15:25:38.891Z,21.63
2019-03-28T15:28:07.289Z,20.80
2019-03-28T15:30:35.671Z,23.07
2019-03-28T15:33:04.124Z,25.00
2019-03-28T15:35:32.585Z,26.40
2019-03-28T15:38:00.988Z,25.97
2019-03-28T15:40:29.371Z,25.50
2019-03-28T15:42:57.770Z,26.40
2019-03-28T15:45:26.164Z,23.90
2019-03-28T15:47:54.548Z,22.83
2019-03-28T15:50:22.931Z,28.67
2019-03-28T15:52:51.325Z,22.33
2019-03-28T15:55:19.704Z,26.03
2019-03-28T15:57:48.184Z,28.00
2019-03-28T16:00:17.492Z,29.33
2019-03-28T16:02:45.881Z,30.90
2019-03-28T16:05:14.276Z,27.07
2019-03-28T16:07:42.656Z,35.33
2019-03-28T16:10:14.613Z,24.17
2019-03-28T16:12:41.816Z,23.83
2019-03-28T16:15:10.354Z,30.07
2019-03-28T16:17:38.747Z,29.43
2019-03-28T16:20:07.780Z,30.13
2019-03-28T16:22:36.175Z,26.73
2019-03-28T16:25:07.295Z,26.57
2019-03-28T16:27:35.681Z,25.57
2019-03-28T16:30:09.085Z,44.47
2019-03-28T16:32:37.475Z,98.23
2019-03-28T16:35:07.219Z,63.03
2019-03-28T16:37:35.609Z,34.23
2019-03-28T16:40:05.035Z,30.37
2019-03-28T16:42:33.431Z,29.87
2019-03-28T16:45:01.830Z,26.17
2019-03-28T16:47:30.224Z,30.50
2019-03-28T16:49:58.609Z,27.33
2019-03-28T16:52:27.004Z,27.87
2019-03-28T16:54:55.687Z,27.77
2019-03-28T16:57:24.075Z,37.33
2019-03-28T16:59:52.460Z,27.20
2019-03-28T17:02:20.838Z,30.63
2019-03-28T17:04:49.763Z,30.73
2019-03-28T17:07:19.247Z,31.43
2019-03-28T17:09:48.365Z,31.73
2019-03-28T17:12:17.073Z,32.70
2019-03-28T17:14:45.459Z,30.27
2019-03-28T17:17:13.844Z,27.53
2019-03-28T17:19:42.892Z,36.23
2019-03-28T17:22:11.492Z,33.80
2019-03-28T17:24:39.883Z,29.80
2019-03-28T17:27:08.267Z,31.93
2019-03-28T17:29:36.660Z,30.47
2019-03-28T17:32:05.046Z,39.53
2019-03-28T17:34:36.274Z,34.53
2019-03-28T17:37:03.544Z,31.60
2019-03-28T17:39:31.928Z,37.10
2019-03-28T17:42:00.309Z,37.10
2019-03-28T17:44:28.707Z,38.37
2019-03-28T17:46:57.096Z,38.50
2019-03-28T17:49:26.102Z,35.30
2019-03-28T17:51:54.748Z,37.63
2019-03-28T17:54:23.144Z,37.93
2019-03-28T17:56:51.524Z,36.20
2019-03-28T17:59:19.915Z,37.30
2019-03-28T18:01:48.299Z,39.93
2019-03-28T18:04:22.777Z,42.30
2019-03-28T18:06:46.868Z,39.97
2019-03-28T18:09:15.379Z,43.20
2019-03-28T18:11:43.768Z,40.30
2019-03-28T18:14:12.168Z,48.33
2019-03-28T18:16:40.547Z,46.60
2019-03-28T18:19:08.927Z,51.97
2019-03-28T18:21:37.323Z,53.10
2019-03-28T18:24:05.709Z,53.10
2019-03-28T18:26:34.100Z,52.07
2019-03-28T18:29:02.488Z,52.50
2019-03-28T18:31:30.882Z,55.80
2019-03-28T18:33:59.264Z,62.07
2019-03-28T18:36:27.656Z,61.37
2019-03-28T18:38:56.049Z,67.47
2019-03-28T18:41:24.442Z,61.27
2019-03-28T18:43:52.832Z,64.50
2019-03-28T18:46:21.212Z,64.90
2019-03-28T18:48:49.600Z,67.97
2019-03-28T18:51:17.991Z,67.50
2019-03-28T18:53:46.384Z,63.27
2019-03-28T18:56:14.760Z,59.20
2019-03-28T18:58:43.388Z,70.07
2019-03-28T19:01:11.827Z,62.47
2019-03-28T19:03:40.224Z,63.60
2019-03-28T19:06:08.611Z,64.13
2019-03-28T19:08:37.000Z,67.40
2019-03-28T19:11:05.379Z,59.80
2019-03-28T19:13:34.044Z,69.53
2019-03-28T19:16:02.433Z,60.07
2019-03-28T19:18:30.808Z,64.03
2019-03-28T19:20:59.271Z,60.77
2019-03-28T19:23:27.652Z,69.03
2019-03-28T19:25:56.060Z,57.20
2019-03-28T19:28:29.266Z,52.67
2019-03-28T19:30:54.611Z,56.13
2019-03-28T19:33:22.992Z,51.93
2019-03-28T19:35:51.743Z,54.90
2019-03-28T19:38:20.279Z,59.17
2019-03-28T19:40:48.663Z,57.37
2019-03-28T19:43:20.988Z,60.20
2019-03-28T19:45:47.335Z,63.70
2019-03-28T19:48:15.717Z,63.10
2019-03-28T19:50:44.091Z,61.37
2019-03-28T19:53:35.134Z,64.17
2019-03-28T19:56:01.931Z,62.93
2019-03-28T19:58:30.979Z,69.03
2019-03-28T20:00:59.708Z,59.03
2019-03-28T20:03:28.804Z,64.27
2019-03-28T20:05:57.346Z,62.30
2019-03-28T20:08:45.127Z,62.07
2019-03-28T20:11:13.728Z,69.67
2019-03-28T20:13:42.108Z,58.07
2019-03-28T20:16:10.489Z,63.63
2019-03-28T20:18:38.866Z,79.10
2019-03-28T20:21:07.252Z,73.50
2019-03-28T20:23:36.110Z,78.93
2019-03-28T20:26:04.568Z,65.83
2019-03-28T20:28:32.947Z,75.17
2019-03-28T20:31:01.575Z,74.53
2019-03-28T20:33:29.953Z,68.43
2019-03-28T20:36:18.843Z,73.97
2019-03-28T20:38:29.250Z,62.07
2019-03-28T20:40:58.713Z,66.87
2019-03-28T20:43:27.460Z,65.83
2019-03-28T20:45:55.840Z,74.03
2019-03-28T20:48:24.237Z,78.00
2019-03-28T20:50:52.628Z,76.40
2019-03-28T20:53:21.003Z,78.83
2019-03-28T20:55:49.392Z,65.53
2019-03-28T20:58:17.777Z,81.20
2019-03-28T21:00:47.898Z,89.13
2019-03-28T21:03:16.720Z,88.33
2019-03-28T21:05:45.640Z,80.07
2019-03-28T21:08:14.294Z,82.13
2019-03-28T21:10:42.686Z,87.67
2019-03-28T21:13:11.060Z,90.33
2019-03-28T21:15:39.439Z,82.63
2019-03-28T21:18:07.827Z,88.97
2019-03-28T21:20:36.752Z,90.60
2019-03-28T21:23:05.480Z,98.87
2019-03-28T21:25:34.040Z,97.67
2019-03-28T21:28:02.415Z,103.90
2019-03-28T21:30:30.808Z,103.60
2019-03-28T21:32:59.183Z,102.47
2019-03-28T21:35:27.571Z,111.67
2019-03-28T21:37:55.986Z,109.70
2019-03-28T21:40:24.373Z,112.87
2019-03-28T21:42:52.824Z,128.27
2019-03-28T21:45:21.199Z,127.27
2019-03-28T21:47:50.809Z,136.13
2019-03-28T21:50:19.256Z,137.10
2019-03-28T21:52:47.631Z,123.00
2019-03-28T21:55:16.842Z,121.23
2019-03-28T21:57:45.351Z,124.03
2019-03-28T22:00:14.145Z,117.57
2019-03-28T22:02:43.236Z,117.67
2019-03-28T22:05:11.756Z,120.50
2019-03-28T22:07:40.411Z,106.63
2019-03-28T22:10:09.951Z,90.67
2019-03-28T22:12:38.347Z,96.43
2019-03-28T22:15:09.635Z,93.33
2019-03-28T22:17:38.040Z,104.80
2019-03-28T22:20:07.161Z,85.37
2019-03-28T22:22:35.531Z,96.03
2019-03-28T22:25:05.459Z,83.53
2019-03-28T22:27:33.836Z,94.13
2019-03-28T22:30:02.251Z,85.20
2019-03-28T22:32:30.624Z,78.97
2019-03-28T22:34:59.839Z,90.93
2019-03-28T22:37:28.884Z,94.70
2019-03-28T22:39:57.519Z,111.10
2019-03-28T22:42:25.926Z,102.03
2019-03-28T22:44:54.309Z,105.10
2019-03-28T22:47:22.685Z,104.60
2019-03-28T22:49:51.071Z,114.43
2019-03-28T22:52:19.460Z,121.50
2019-03-28T22:54:47.848Z,129.97
2019-03-28T22:57:16.245Z,144.63
2019-03-28T22:59:44.626Z,149.20
2019-03-28T23:02:13.076Z,142.97
2019-03-28T23:04:41.474Z,154.17
2019-03-28T23:07:11.153Z,162.50
2019-03-28T23:09:39.936Z,161.27
2019-03-28T23:12:08.954Z,171.23
2019-03-28T23:14:37.694Z,192.53
2019-03-28T23:17:06.075Z,197.20
2019-03-28T23:19:34.473Z,207.43
2019-03-28T23:22:02.851Z,210.90
2019-03-28T23:24:31.243Z,183.67
2019-03-28T23:27:00.802Z,180.77
2019-03-28T23:29:29.398Z,175.57
2019-03-28T23:31:57.779Z,169.50
2019-03-28T23:34:26.184Z,186.93
2019-03-28T23:36:54.620Z,169.90
2019-03-28T23:39:23.007Z,161.40
2019-03-28T23:41:51.399Z,167.53
2019-03-28T23:44:19.783Z,187.70
2019-03-28T23:46:48.171Z,200.17
2019-03-28T23:49:16.556Z,213.13
2019-03-28T23:51:44.951Z,216.93
2019-03-28T23:54:13.328Z,214.03
2019-03-28T23:56:41.705Z,224.90
2019-03-28T23:59:10.798Z,225.47
